sensor_id;sensor_type;location;lat;lon;timestamp;P1;P2;P0
47810;PMS5003;33575;52.600;7.318;2022-12-07T00:01:44;16;13;
47810;PMS5003;33575;52.600;7.318;2022-12-07T00:04:15;17;16;
47810;PMS5003;33575;52.600;7.318;2022-12-07T00:06:46;15;15;
47810;PMS5003;33575;52.600;7.318;2022-12-07T00:09:17;20;19;
47810;PMS5003;33575;52.600;7.318;2022-12-07T00:11:48;17;17;
47810;PMS5003;33575;52.600;7.318;2022-12-07T00:14:17;17;17;
47810;PMS5003;33575;52.600;7.318;2022-12-07T00:16:48;13;12;
47810;PMS5003;33575;52.600;7.318;2022-12-07T00:19:19;14;13;
47810;PMS5003;33575;52.600;7.318;2022-12-07T00:21:49;14;13;
47810;PMS5003;33575;52.600;7.318;2022-12-07T00:24:20;15;15;
47810;PMS5003;33575;52.600;7.318;2022-12-07T00:26:51;16;14;
47810;PMS5003;33575;52.600;7.318;2022-12-07T00:29:21;14;14;
47810;PMS5003;33575;52.600;7.318;2022-12-07T00:31:52;14;13;
47810;PMS5003;33575;52.600;7.318;2022-12-07T00:34:23;12;11;
47810;PMS5003;33575;52.600;7.318;2022-12-07T00:36:54;12;12;
47810;PMS5003;33575;52.600;7.318;2022-12-07T00:39:24;14;13;
47810;PMS5003;33575;52.600;7.318;2022-12-07T00:41:55;12;11;
47810;PMS5003;33575;52.600;7.318;2022-12-07T00:44:26;12;10;
47810;PMS5003;33575;52.600;7.318;2022-12-07T00:46:56;9;9;
47810;PMS5003;33575;52.600;7.318;2022-12-07T00:49:27;10;10;
47810;PMS5003;33575;52.600;7.318;2022-12-07T00:51:57;9;8;
47810;PMS5003;33575;52.600;7.318;2022-12-07T00:54:28;11;10;
47810;PMS5003;33575;52.600;7.318;2022-12-07T00:56:59;8;8;
47810;PMS5003;33575;52.600;7.318;2022-12-07T00:59:30;9;8;
47810;PMS5003;33575;52.600;7.318;2022-12-07T01:02:00;8;8;
47810;PMS5003;33575;52.600;7.318;2022-12-07T01:04:33;7;7;
47810;PMS5003;33575;52.600;7.318;2022-12-07T01:07:02;7;5;
47810;PMS5003;33575;52.600;7.318;2022-12-07T01:09:33;7;6;
47810;PMS5003;33575;52.600;7.318;2022-12-07T01:12:04;7;6;
47810;PMS5003;33575;52.600;7.318;2022-12-07T01:14:34;4;4;
47810;PMS5003;33575;52.600;7.318;2022-12-07T01:17:05;8;7;
47810;PMS5003;33575;52.600;7.318;2022-12-07T01:19:36;7;6;
47810;PMS5003;33575;52.600;7.318;2022-12-07T01:22:06;5;5;
47810;PMS5003;33575;52.600;7.318;2022-12-07T01:24:37;6;5;
47810;PMS5003;33575;52.600;7.318;2022-12-07T01:27:08;4;4;
47810;PMS5003;33575;52.600;7.318;2022-12-07T01:29:39;3;3;
47810;PMS5003;33575;52.600;7.318;2022-12-07T01:32:10;8;4;
47810;PMS5003;33575;52.600;7.318;2022-12-07T01:34:40;6;5;
47810;PMS5003;33575;52.600;7.318;2022-12-07T01:37:11;8;5;
47810;PMS5003;33575;52.600;7.318;2022-12-07T01:39:42;4;3;
47810;PMS5003;33575;52.600;7.318;2022-12-07T01:42:13;2;2;
47810;PMS5003;33575;52.600;7.318;2022-12-07T01:47:14;3;3;
47810;PMS5003;33575;52.600;7.318;2022-12-07T01:49:46;2;2;
47810;PMS5003;33575;52.600;7.318;2022-12-07T01:52:17;6;4;
47810;PMS5003;33575;52.600;7.318;2022-12-07T01:54:47;4;3;
47810;PMS5003;33575;52.600;7.318;2022-12-07T01:57:17;3;3;
47810;PMS5003;33575;52.600;7.318;2022-12-07T01:59:48;3;3;
47810;PMS5003;33575;52.600;7.318;2022-12-07T02:02:20;5;2;
47810;PMS5003;33575;52.600;7.318;2022-12-07T02:04:50;2;2;
47810;PMS5003;33575;52.600;7.318;2022-12-07T02:07:20;4;4;
47810;PMS5003;33575;52.600;7.318;2022-12-07T02:09:51;4;3;
47810;PMS5003;33575;52.600;7.318;2022-12-07T02:12:22;2;2;
47810;PMS5003;33575;52.600;7.318;2022-12-07T02:14:52;4;4;
47810;PMS5003;33575;52.600;7.318;2022-12-07T02:17:25;3;3;
47810;PMS5003;33575;52.600;7.318;2022-12-07T02:22:30;2;2;
47810;PMS5003;33575;52.600;7.318;2022-12-07T02:24:56;1;1;
47810;PMS5003;33575;52.600;7.318;2022-12-07T02:27:29;1;1;
47810;PMS5003;33575;52.600;7.318;2022-12-07T02:29:58;1;0;
47810;PMS5003;33575;52.600;7.318;2022-12-07T02:32:29;3;3;
47810;PMS5003;33575;52.600;7.318;2022-12-07T02:35:01;2;1;
47810;PMS5003;33575;52.600;7.318;2022-12-07T02:37:32;3;2;
47810;PMS5003;33575;52.600;7.318;2022-12-07T02:40:02;3;3;
47810;PMS5003;33575;52.600;7.318;2022-12-07T02:42:32;3;2;
47810;PMS5003;33575;52.600;7.318;2022-12-07T02:45:02;1;1;
47810;PMS5003;33575;52.600;7.318;2022-12-07T02:47:32;2;2;
47810;PMS5003;33575;52.600;7.318;2022-12-07T02:50:04;2;2;
47810;PMS5003;33575;52.600;7.318;2022-12-07T02:52:34;2;2;
47810;PMS5003;33575;52.600;7.318;2022-12-07T02:55:05;3;2;
47810;PMS5003;33575;52.600;7.318;2022-12-07T02:57:40;3;2;
47810;PMS5003;33575;52.600;7.318;2022-12-07T03:00:08;2;2;
47810;PMS5003;33575;52.600;7.318;2022-12-07T03:02:40;3;2;
47810;PMS5003;33575;52.600;7.318;2022-12-07T03:05:12;2;2;
47810;PMS5003;33575;52.600;7.318;2022-12-07T03:07:39;2;2;
47810;PMS5003;33575;52.600;7.318;2022-12-07T03:10:22;4;2;
47810;PMS5003;33575;52.600;7.318;2022-12-07T03:12:42;4;2;
47810;PMS5003;33575;52.600;7.318;2022-12-07T03:15:12;2;2;
47810;PMS5003;33575;52.600;7.318;2022-12-07T03:17:42;3;2;
47810;PMS5003;33575;52.600;7.318;2022-12-07T03:20:13;1;1;
47810;PMS5003;33575;52.600;7.318;2022-12-07T03:22:43;1;1;
47810;PMS5003;33575;52.600;7.318;2022-12-07T03:25:14;2;1;
47810;PMS5003;33575;52.600;7.318;2022-12-07T03:27:45;3;2;
47810;PMS5003;33575;52.600;7.318;2022-12-07T03:30:16;2;2;
47810;PMS5003;33575;52.600;7.318;2022-12-07T03:32:47;2;1;
47810;PMS5003;33575;52.600;7.318;2022-12-07T03:35:17;3;1;
47810;PMS5003;33575;52.600;7.318;2022-12-07T03:37:48;1;1;
47810;PMS5003;33575;52.600;7.318;2022-12-07T03:40:19;1;1;
47810;PMS5003;33575;52.600;7.318;2022-12-07T03:42:49;1;1;
47810;PMS5003;33575;52.600;7.318;2022-12-07T03:45:20;3;2;
47810;PMS5003;33575;52.600;7.318;2022-12-07T03:47:52;4;1;
47810;PMS5003;33575;52.600;7.318;2022-12-07T03:50:22;2;2;
47810;PMS5003;33575;52.600;7.318;2022-12-07T03:52:53;2;1;
47810;PMS5003;33575;52.600;7.318;2022-12-07T03:55:24;2;2;
47810;PMS5003;33575;52.600;7.318;2022-12-07T03:57:54;1;1;
47810;PMS5003;33575;52.600;7.318;2022-12-07T04:00:24;0;0;
47810;PMS5003;33575;52.600;7.318;2022-12-07T04:02:55;2;2;
47810;PMS5003;33575;52.600;7.318;2022-12-07T04:05:25;58;21;
47810;PMS5003;33575;52.600;7.318;2022-12-07T04:07:55;3;1;
47810;PMS5003;33575;52.600;7.318;2022-12-07T04:10:26;5;2;
47810;PMS5003;33575;52.600;7.318;2022-12-07T04:12:57;4;3;
47810;PMS5003;33575;52.600;7.318;2022-12-07T04:15:27;3;1;
47810;PMS5003;33575;52.600;7.318;2022-12-07T04:17:58;2;2;
47810;PMS5003;33575;52.600;7.318;2022-12-07T04:20:29;1;1;
47810;PMS5003;33575;52.600;7.318;2022-12-07T04:23:00;2;2;
47810;PMS5003;33575;52.600;7.318;2022-12-07T04:25:30;2;2;
47810;PMS5003;33575;52.600;7.318;2022-12-07T04:28:01;3;2;
47810;PMS5003;33575;52.600;7.318;2022-12-07T04:30:32;3;2;
47810;PMS5003;33575;52.600;7.318;2022-12-07T04:33:03;2;1;
47810;PMS5003;33575;52.600;7.318;2022-12-07T04:35:34;0;0;
47810;PMS5003;33575;52.600;7.318;2022-12-07T04:38:04;2;1;
47810;PMS5003;33575;52.600;7.318;2022-12-07T04:40:35;3;1;
47810;PMS5003;33575;52.600;7.318;2022-12-07T04:43:06;4;3;
47810;PMS5003;33575;52.600;7.318;2022-12-07T04:45:37;3;3;
47810;PMS5003;33575;52.600;7.318;2022-12-07T04:48:08;2;2;
47810;PMS5003;33575;52.600;7.318;2022-12-07T04:50:43;2;2;
47810;PMS5003;33575;52.600;7.318;2022-12-07T04:53:09;3;2;
47810;PMS5003;33575;52.600;7.318;2022-12-07T04:55:40;2;2;
47810;PMS5003;33575;52.600;7.318;2022-12-07T04:58:11;2;1;
47810;PMS5003;33575;52.600;7.318;2022-12-07T05:00:42;3;2;
47810;PMS5003;33575;52.600;7.318;2022-12-07T05:03:12;2;1;
47810;PMS5003;33575;52.600;7.318;2022-12-07T05:05:43;1;1;
47810;PMS5003;33575;52.600;7.318;2022-12-07T05:08:14;1;0;
47810;PMS5003;33575;52.600;7.318;2022-12-07T05:10:45;1;1;
47810;PMS5003;33575;52.600;7.318;2022-12-07T05:13:15;4;1;
47810;PMS5003;33575;52.600;7.318;2022-12-07T05:15:46;1;1;
47810;PMS5003;33575;52.600;7.318;2022-12-07T05:18:17;2;1;
47810;PMS5003;33575;52.600;7.318;2022-12-07T05:20:48;0;0;
47810;PMS5003;33575;52.600;7.318;2022-12-07T05:23:19;2;1;
47810;PMS5003;33575;52.600;7.318;2022-12-07T05:25:49;3;2;
47810;PMS5003;33575;52.600;7.318;2022-12-07T05:28:20;2;1;
47810;PMS5003;33575;52.600;7.318;2022-12-07T05:30:56;3;2;
47810;PMS5003;33575;52.600;7.318;2022-12-07T05:33:21;3;2;
47810;PMS5003;33575;52.600;7.318;2022-12-07T05:35:52;0;0;
47810;PMS5003;33575;52.600;7.318;2022-12-07T05:38:23;2;0;
47810;PMS5003;33575;52.600;7.318;2022-12-07T05:40:54;1;1;
47810;PMS5003;33575;52.600;7.318;2022-12-07T05:43:25;1;1;
47810;PMS5003;33575;52.600;7.318;2022-12-07T05:45:55;0;0;
47810;PMS5003;33575;52.600;7.318;2022-12-07T05:48:26;2;1;
47810;PMS5003;33575;52.600;7.318;2022-12-07T05:50:57;1;1;
47810;PMS5003;33575;52.600;7.318;2022-12-07T05:53:28;1;1;
47810;PMS5003;33575;52.600;7.318;2022-12-07T05:55:58;1;1;
47810;PMS5003;33575;52.600;7.318;2022-12-07T05:58:29;0;0;
47810;PMS5003;33575;52.600;7.318;2022-12-07T06:01:00;1;0;
47810;PMS5003;33575;52.600;7.318;2022-12-07T06:03:31;1;1;
47810;PMS5003;33575;52.600;7.318;2022-12-07T06:06:02;1;1;
47810;PMS5003;33575;52.600;7.318;2022-12-07T06:08:33;4;1;
47810;PMS5003;33575;52.600;7.318;2022-12-07T06:11:03;3;3;
47810;PMS5003;33575;52.600;7.318;2022-12-07T06:13:34;2;2;
47810;PMS5003;33575;52.600;7.318;2022-12-07T06:16:05;2;1;
47810;PMS5003;33575;52.600;7.318;2022-12-07T06:18:36;2;2;
47810;PMS5003;33575;52.600;7.318;2022-12-07T06:21:06;2;1;
47810;PMS5003;33575;52.600;7.318;2022-12-07T06:23:37;1;1;
47810;PMS5003;33575;52.600;7.318;2022-12-07T06:26:08;3;2;
47810;PMS5003;33575;52.600;7.318;2022-12-07T06:28:39;2;2;
47810;PMS5003;33575;52.600;7.318;2022-12-07T06:31:14;1;1;
47810;PMS5003;33575;52.600;7.318;2022-12-07T06:33:40;3;2;
47810;PMS5003;33575;52.600;7.318;2022-12-07T06:36:11;3;2;
47810;PMS5003;33575;52.600;7.318;2022-12-07T06:38:42;1;1;
47810;PMS5003;33575;52.600;7.318;2022-12-07T06:41:13;1;1;
47810;PMS5003;33575;52.600;7.318;2022-12-07T06:43:43;5;4;
47810;PMS5003;33575;52.600;7.318;2022-12-07T06:46:15;0;0;
47810;PMS5003;33575;52.600;7.318;2022-12-07T06:48:45;2;2;
47810;PMS5003;33575;52.600;7.318;2022-12-07T06:51:16;2;0;
47810;PMS5003;33575;52.600;7.318;2022-12-07T06:53:47;2;2;
47810;PMS5003;33575;52.600;7.318;2022-12-07T06:56:17;2;2;
47810;PMS5003;33575;52.600;7.318;2022-12-07T06:58:48;4;2;
47810;PMS5003;33575;52.600;7.318;2022-12-07T07:01:19;4;1;
47810;PMS5003;33575;52.600;7.318;2022-12-07T07:03:50;2;2;
47810;PMS5003;33575;52.600;7.318;2022-12-07T07:06:21;2;2;
47810;PMS5003;33575;52.600;7.318;2022-12-07T07:08:52;1;1;
47810;PMS5003;33575;52.600;7.318;2022-12-07T07:11:22;4;4;
47810;PMS5003;33575;52.600;7.318;2022-12-07T07:13:53;2;2;
47810;PMS5003;33575;52.600;7.318;2022-12-07T07:16:24;4;3;
47810;PMS5003;33575;52.600;7.318;2022-12-07T07:18:55;1;1;
47810;PMS5003;33575;52.600;7.318;2022-12-07T07:21:25;2;1;
47810;PMS5003;33575;52.600;7.318;2022-12-07T07:23:56;3;3;
47810;PMS5003;33575;52.600;7.318;2022-12-07T07:26:27;2;2;
47810;PMS5003;33575;52.600;7.318;2022-12-07T07:28:58;3;2;
47810;PMS5003;33575;52.600;7.318;2022-12-07T07:31:29;3;2;
47810;PMS5003;33575;52.600;7.318;2022-12-07T07:34:00;1;1;
47810;PMS5003;33575;52.600;7.318;2022-12-07T07:36:30;3;2;
47810;PMS5003;33575;52.600;7.318;2022-12-07T07:39:01;1;1;
47810;PMS5003;33575;52.600;7.318;2022-12-07T07:41:32;3;2;
47810;PMS5003;33575;52.600;7.318;2022-12-07T07:44:03;3;3;
47810;PMS5003;33575;52.600;7.318;2022-12-07T07:46:34;4;3;
47810;PMS5003;33575;52.600;7.318;2022-12-07T07:49:04;2;0;
47810;PMS5003;33575;52.600;7.318;2022-12-07T07:51:35;2;1;
47810;PMS5003;33575;52.600;7.318;2022-12-07T07:54:06;0;0;
47810;PMS5003;33575;52.600;7.318;2022-12-07T07:56:37;4;1;
47810;PMS5003;33575;52.600;7.318;2022-12-07T07:59:08;2;1;
47810;PMS5003;33575;52.600;7.318;2022-12-07T08:01:39;3;2;
47810;PMS5003;33575;52.600;7.318;2022-12-07T08:04:09;2;1;
47810;PMS5003;33575;52.600;7.318;2022-12-07T08:06:40;3;2;
47810;PMS5003;33575;52.600;7.318;2022-12-07T08:09:11;3;1;
47810;PMS5003;33575;52.600;7.318;2022-12-07T08:11:42;1;1;
47810;PMS5003;33575;52.600;7.318;2022-12-07T08:14:13;1;1;
47810;PMS5003;33575;52.600;7.318;2022-12-07T08:16:43;0;0;
47810;PMS5003;33575;52.600;7.318;2022-12-07T08:19:14;2;2;
47810;PMS5003;33575;52.600;7.318;2022-12-07T08:21:45;1;1;
47810;PMS5003;33575;52.600;7.318;2022-12-07T08:24:16;2;2;
47810;PMS5003;33575;52.600;7.318;2022-12-07T08:26:47;2;2;
47810;PMS5003;33575;52.600;7.318;2022-12-07T08:29:18;1;1;
47810;PMS5003;33575;52.600;7.318;2022-12-07T08:31:48;2;2;
47810;PMS5003;33575;52.600;7.318;2022-12-07T08:34:19;2;2;
47810;PMS5003;33575;52.600;7.318;2022-12-07T08:36:50;1;1;
47810;PMS5003;33575;52.600;7.318;2022-12-07T08:39:26;1;1;
47810;PMS5003;33575;52.600;7.318;2022-12-07T08:41:52;2;1;
47810;PMS5003;33575;52.600;7.318;2022-12-07T08:44:23;2;1;
47810;PMS5003;33575;52.600;7.318;2022-12-07T08:46:55;5;4;
47810;PMS5003;33575;52.600;7.318;2022-12-07T08:49:25;4;2;
47810;PMS5003;33575;52.600;7.318;2022-12-07T08:51:55;4;3;
47810;PMS5003;33575;52.600;7.318;2022-12-07T08:54:26;3;3;
47810;PMS5003;33575;52.600;7.318;2022-12-07T08:57:00;2;2;
47810;PMS5003;33575;52.600;7.318;2022-12-07T08:59:27;2;2;
47810;PMS5003;33575;52.600;7.318;2022-12-07T09:01:58;3;2;
47810;PMS5003;33575;52.600;7.318;2022-12-07T09:04:29;2;2;
47810;PMS5003;33575;52.600;7.318;2022-12-07T09:07:00;2;2;
47810;PMS5003;33575;52.600;7.318;2022-12-07T09:09:31;1;1;
47810;PMS5003;33575;52.600;7.318;2022-12-07T09:12:02;1;0;
47810;PMS5003;33575;52.600;7.318;2022-12-07T09:14:32;1;1;
47810;PMS5003;33575;52.600;7.318;2022-12-07T09:17:05;2;1;
47810;PMS5003;33575;52.600;7.318;2022-12-07T09:19:34;3;2;
47810;PMS5003;33575;52.600;7.318;2022-12-07T09:22:05;3;2;
47810;PMS5003;33575;52.600;7.318;2022-12-07T09:24:36;0;0;
47810;PMS5003;33575;52.600;7.318;2022-12-07T09:27:06;3;2;
47810;PMS5003;33575;52.600;7.318;2022-12-07T09:29:37;0;0;
47810;PMS5003;33575;52.600;7.318;2022-12-07T09:32:12;2;1;
47810;PMS5003;33575;52.600;7.318;2022-12-07T09:34:39;2;2;
47810;PMS5003;33575;52.600;7.318;2022-12-07T09:37:10;2;2;
47810;PMS5003;33575;52.600;7.318;2022-12-07T09:39:45;5;3;
47810;PMS5003;33575;52.600;7.318;2022-12-07T09:42:14;5;3;
47810;PMS5003;33575;52.600;7.318;2022-12-07T09:44:42;4;4;
47810;PMS5003;33575;52.600;7.318;2022-12-07T09:47:13;4;2;
47810;PMS5003;33575;52.600;7.318;2022-12-07T09:49:44;3;3;
47810;PMS5003;33575;52.600;7.318;2022-12-07T09:52:19;4;3;
47810;PMS5003;33575;52.600;7.318;2022-12-07T09:54:46;2;2;
47810;PMS5003;33575;52.600;7.318;2022-12-07T09:57:16;4;3;
47810;PMS5003;33575;52.600;7.318;2022-12-07T09:59:47;4;4;
47810;PMS5003;33575;52.600;7.318;2022-12-07T10:02:23;3;2;
47810;PMS5003;33575;52.600;7.318;2022-12-07T10:04:48;4;3;
47810;PMS5003;33575;52.600;7.318;2022-12-07T10:07:19;3;3;
47810;PMS5003;33575;52.600;7.318;2022-12-07T10:09:50;2;2;
47810;PMS5003;33575;52.600;7.318;2022-12-07T10:12:21;3;3;
47810;PMS5003;33575;52.600;7.318;2022-12-07T10:15:00;3;3;
47810;PMS5003;33575;52.600;7.318;2022-12-07T10:17:28;3;2;
47810;PMS5003;33575;52.600;7.318;2022-12-07T10:19:54;3;1;
47810;PMS5003;33575;52.600;7.318;2022-12-07T10:22:29;4;3;
47810;PMS5003;33575;52.600;7.318;2022-12-07T10:24:54;3;2;
47810;PMS5003;33575;52.600;7.318;2022-12-07T10:27:26;2;2;
47810;PMS5003;33575;52.600;7.318;2022-12-07T10:29:56;2;2;
47810;PMS5003;33575;52.600;7.318;2022-12-07T10:32:28;2;1;
47810;PMS5003;33575;52.600;7.318;2022-12-07T10:37:28;4;2;
47810;PMS5003;33575;52.600;7.318;2022-12-07T10:39:59;3;2;
47810;PMS5003;33575;52.600;7.318;2022-12-07T10:42:31;3;2;
47810;PMS5003;33575;52.600;7.318;2022-12-07T10:47:33;1;1;
47810;PMS5003;33575;52.600;7.318;2022-12-07T10:52:39;2;2;
47810;PMS5003;33575;52.600;7.318;2022-12-07T10:55:08;2;2;
47810;PMS5003;33575;52.600;7.318;2022-12-07T10:57:37;1;1;
47810;PMS5003;33575;52.600;7.318;2022-12-07T11:00:09;2;2;
47810;PMS5003;33575;52.600;7.318;2022-12-07T11:02:40;2;2;
47810;PMS5003;33575;52.600;7.318;2022-12-07T11:05:11;1;1;
47810;PMS5003;33575;52.600;7.318;2022-12-07T11:07:41;2;2;
47810;PMS5003;33575;52.600;7.318;2022-12-07T11:10:13;3;1;
47810;PMS5003;33575;52.600;7.318;2022-12-07T11:12:44;2;2;
47810;PMS5003;33575;52.600;7.318;2022-12-07T11:15:12;2;2;
47810;PMS5003;33575;52.600;7.318;2022-12-07T11:17:42;5;3;
47810;PMS5003;33575;52.600;7.318;2022-12-07T11:20:14;4;3;
47810;PMS5003;33575;52.600;7.318;2022-12-07T11:22:43;2;1;
47810;PMS5003;33575;52.600;7.318;2022-12-07T11:25:16;2;2;
47810;PMS5003;33575;52.600;7.318;2022-12-07T11:27:44;3;1;
47810;PMS5003;33575;52.600;7.318;2022-12-07T11:30:16;2;2;
47810;PMS5003;33575;52.600;7.318;2022-12-07T11:32:49;3;2;
47810;PMS5003;33575;52.600;7.318;2022-12-07T11:35:18;4;3;
47810;PMS5003;33575;52.600;7.318;2022-12-07T11:37:46;3;2;
47810;PMS5003;33575;52.600;7.318;2022-12-07T11:40:20;1;1;
47810;PMS5003;33575;52.600;7.318;2022-12-07T11:42:50;3;2;
47810;PMS5003;33575;52.600;7.318;2022-12-07T11:45:19;4;3;
47810;PMS5003;33575;52.600;7.318;2022-12-07T11:47:51;2;2;
47810;PMS5003;33575;52.600;7.318;2022-12-07T11:50:23;5;3;
47810;PMS5003;33575;52.600;7.318;2022-12-07T11:52:52;1;1;
47810;PMS5003;33575;52.600;7.318;2022-12-07T11:55:26;2;2;
47810;PMS5003;33575;52.600;7.318;2022-12-07T11:57:54;1;1;
47810;PMS5003;33575;52.600;7.318;2022-12-07T12:00:23;3;2;
47810;PMS5003;33575;52.600;7.318;2022-12-07T12:02:55;7;6;
47810;PMS5003;33575;52.600;7.318;2022-12-07T12:05:25;5;3;
47810;PMS5003;33575;52.600;7.318;2022-12-07T12:08:02;1;1;
47810;PMS5003;33575;52.600;7.318;2022-12-07T12:10:27;1;1;
47810;PMS5003;33575;52.600;7.318;2022-12-07T12:13:05;2;1;
47810;PMS5003;33575;52.600;7.318;2022-12-07T12:15:30;2;2;
47810;PMS5003;33575;52.600;7.318;2022-12-07T12:18:05;4;3;
47810;PMS5003;33575;52.600;7.318;2022-12-07T12:20:29;4;2;
47810;PMS5003;33575;52.600;7.318;2022-12-07T12:23:01;2;1;
47810;PMS5003;33575;52.600;7.318;2022-12-07T12:25:34;3;2;
47810;PMS5003;33575;52.600;7.318;2022-12-07T12:28:01;3;1;
47810;PMS5003;33575;52.600;7.318;2022-12-07T12:30:34;1;1;
47810;PMS5003;33575;52.600;7.318;2022-12-07T12:33:05;2;1;
47810;PMS5003;33575;52.600;7.318;2022-12-07T12:35:34;1;1;
47810;PMS5003;33575;52.600;7.318;2022-12-07T12:40:38;3;3;
47810;PMS5003;33575;52.600;7.318;2022-12-07T12:45:36;3;2;
47810;PMS5003;33575;52.600;7.318;2022-12-07T12:50:39;1;1;
47810;PMS5003;33575;52.600;7.318;2022-12-07T13:00:41;3;1;
47810;PMS5003;33575;52.600;7.318;2022-12-07T13:05:42;1;0;
47810;PMS5003;33575;52.600;7.318;2022-12-07T13:08:13;1;1;
47810;PMS5003;33575;52.600;7.318;2022-12-07T13:10:44;1;1;
47810;PMS5003;33575;52.600;7.318;2022-12-07T13:15:46;2;2;
47810;PMS5003;33575;52.600;7.318;2022-12-07T13:20:47;2;1;
47810;PMS5003;33575;52.600;7.318;2022-12-07T13:23:19;2;2;
47810;PMS5003;33575;52.600;7.318;2022-12-07T13:25:51;4;3;
47810;PMS5003;33575;52.600;7.318;2022-12-07T13:28:19;0;0;
47810;PMS5003;33575;52.600;7.318;2022-12-07T13:30:57;4;2;
47810;PMS5003;33575;52.600;7.318;2022-12-07T13:33:20;1;1;
47810;PMS5003;33575;52.600;7.318;2022-12-07T13:35:53;2;1;
47810;PMS5003;33575;52.600;7.318;2022-12-07T13:38:23;3;2;
47810;PMS5003;33575;52.600;7.318;2022-12-07T13:43:23;3;2;
47810;PMS5003;33575;52.600;7.318;2022-12-07T13:45:55;5;3;
47810;PMS5003;33575;52.600;7.318;2022-12-07T13:48:27;2;2;
47810;PMS5003;33575;52.600;7.318;2022-12-07T13:50:56;2;2;
47810;PMS5003;33575;52.600;7.318;2022-12-07T13:53:26;4;3;
47810;PMS5003;33575;52.600;7.318;2022-12-07T13:55:57;1;1;
47810;PMS5003;33575;52.600;7.318;2022-12-07T13:58:29;3;3;
47810;PMS5003;33575;52.600;7.318;2022-12-07T14:00:59;3;2;
47810;PMS5003;33575;52.600;7.318;2022-12-07T14:03:31;3;3;
47810;PMS5003;33575;52.600;7.318;2022-12-07T14:06:05;2;2;
47810;PMS5003;33575;52.600;7.318;2022-12-07T14:08:31;2;2;
47810;PMS5003;33575;52.600;7.318;2022-12-07T14:11:01;4;1;
47810;PMS5003;33575;52.600;7.318;2022-12-07T14:13:33;2;2;
47810;PMS5003;33575;52.600;7.318;2022-12-07T14:16:04;2;2;
47810;PMS5003;33575;52.600;7.318;2022-12-07T14:18:36;2;2;
47810;PMS5003;33575;52.600;7.318;2022-12-07T14:21:05;2;1;
47810;PMS5003;33575;52.600;7.318;2022-12-07T14:23:35;3;3;
47810;PMS5003;33575;52.600;7.318;2022-12-07T14:26:07;5;3;
47810;PMS5003;33575;52.600;7.318;2022-12-07T14:28:37;3;3;
47810;PMS5003;33575;52.600;7.318;2022-12-07T14:31:10;4;2;
47810;PMS5003;33575;52.600;7.318;2022-12-07T14:33:38;4;4;
47810;PMS5003;33575;52.600;7.318;2022-12-07T14:36:09;3;1;
47810;PMS5003;33575;52.600;7.318;2022-12-07T14:38:39;3;2;
47810;PMS5003;33575;52.600;7.318;2022-12-07T14:41:12;2;2;
47810;PMS5003;33575;52.600;7.318;2022-12-07T14:43:46;4;3;
47810;PMS5003;33575;52.600;7.318;2022-12-07T14:46:12;2;2;
47810;PMS5003;33575;52.600;7.318;2022-12-07T14:48:47;4;4;
47810;PMS5003;33575;52.600;7.318;2022-12-07T14:51:18;1;1;
47810;PMS5003;33575;52.600;7.318;2022-12-07T14:53:44;3;2;
47810;PMS5003;33575;52.600;7.318;2022-12-07T14:56:14;3;2;
47810;PMS5003;33575;52.600;7.318;2022-12-07T14:58:45;1;1;
47810;PMS5003;33575;52.600;7.318;2022-12-07T15:01:16;3;2;
47810;PMS5003;33575;52.600;7.318;2022-12-07T15:03:47;2;2;
47810;PMS5003;33575;52.600;7.318;2022-12-07T15:06:18;3;1;
47810;PMS5003;33575;52.600;7.318;2022-12-07T15:08:48;1;1;
47810;PMS5003;33575;52.600;7.318;2022-12-07T15:11:19;2;1;
47810;PMS5003;33575;52.600;7.318;2022-12-07T15:13:50;2;2;
47810;PMS5003;33575;52.600;7.318;2022-12-07T15:16:20;1;1;
47810;PMS5003;33575;52.600;7.318;2022-12-07T15:18:56;1;1;
47810;PMS5003;33575;52.600;7.318;2022-12-07T15:21:22;4;3;
47810;PMS5003;33575;52.600;7.318;2022-12-07T15:23:53;1;1;
47810;PMS5003;33575;52.600;7.318;2022-12-07T15:26:23;3;1;
47810;PMS5003;33575;52.600;7.318;2022-12-07T15:28:54;3;2;
47810;PMS5003;33575;52.600;7.318;2022-12-07T15:31:30;1;1;
47810;PMS5003;33575;52.600;7.318;2022-12-07T15:33:55;4;3;
47810;PMS5003;33575;52.600;7.318;2022-12-07T15:36:28;2;2;
47810;PMS5003;33575;52.600;7.318;2022-12-07T15:39:02;3;3;
47810;PMS5003;33575;52.600;7.318;2022-12-07T15:41:28;5;3;
47810;PMS5003;33575;52.600;7.318;2022-12-07T15:43:58;4;2;
47810;PMS5003;33575;52.600;7.318;2022-12-07T15:46:30;3;3;
47810;PMS5003;33575;52.600;7.318;2022-12-07T15:49:00;2;2;
47810;PMS5003;33575;52.600;7.318;2022-12-07T15:51:31;3;2;
47810;PMS5003;33575;52.600;7.318;2022-12-07T15:54:01;3;2;
47810;PMS5003;33575;52.600;7.318;2022-12-07T15:56:32;3;3;
47810;PMS5003;33575;52.600;7.318;2022-12-07T15:59:03;2;2;
47810;PMS5003;33575;52.600;7.318;2022-12-07T16:01:34;3;3;
47810;PMS5003;33575;52.600;7.318;2022-12-07T16:04:05;3;2;
47810;PMS5003;33575;52.600;7.318;2022-12-07T16:06:35;3;3;
47810;PMS5003;33575;52.600;7.318;2022-12-07T16:09:06;6;4;
47810;PMS5003;33575;52.600;7.318;2022-12-07T16:11:37;6;4;
47810;PMS5003;33575;52.600;7.318;2022-12-07T16:14:08;6;5;
47810;PMS5003;33575;52.600;7.318;2022-12-07T16:16:38;3;3;
47810;PMS5003;33575;52.600;7.318;2022-12-07T16:19:09;2;2;
47810;PMS5003;33575;52.600;7.318;2022-12-07T16:21:40;4;3;
47810;PMS5003;33575;52.600;7.318;2022-12-07T16:24:10;5;3;
47810;PMS5003;33575;52.600;7.318;2022-12-07T16:26:46;4;3;
47810;PMS5003;33575;52.600;7.318;2022-12-07T16:29:12;5;4;
47810;PMS5003;33575;52.600;7.318;2022-12-07T16:31:43;8;6;
47810;PMS5003;33575;52.600;7.318;2022-12-07T16:34:14;4;4;
47810;PMS5003;33575;52.600;7.318;2022-12-07T16:36:49;5;4;
47810;PMS5003;33575;52.600;7.318;2022-12-07T16:39:15;7;6;
47810;PMS5003;33575;52.600;7.318;2022-12-07T16:41:46;5;5;
47810;PMS5003;33575;52.600;7.318;2022-12-07T16:44:17;4;3;
47810;PMS5003;33575;52.600;7.318;2022-12-07T16:46:48;4;3;
47810;PMS5003;33575;52.600;7.318;2022-12-07T16:49:18;4;3;
47810;PMS5003;33575;52.600;7.318;2022-12-07T16:51:54;3;3;
47810;PMS5003;33575;52.600;7.318;2022-12-07T16:54:20;5;4;
47810;PMS5003;33575;52.600;7.318;2022-12-07T16:56:53;5;4;
47810;PMS5003;33575;52.600;7.318;2022-12-07T16:59:21;4;4;
47810;PMS5003;33575;52.600;7.318;2022-12-07T17:01:52;4;3;
47810;PMS5003;33575;52.600;7.318;2022-12-07T17:04:23;5;5;
47810;PMS5003;33575;52.600;7.318;2022-12-07T17:06:54;5;4;
47810;PMS5003;33575;52.600;7.318;2022-12-07T17:09:24;4;4;
47810;PMS5003;33575;52.600;7.318;2022-12-07T17:11:55;5;4;
47810;PMS5003;33575;52.600;7.318;2022-12-07T17:14:26;4;4;
47810;PMS5003;33575;52.600;7.318;2022-12-07T17:16:57;8;7;
47810;PMS5003;33575;52.600;7.318;2022-12-07T17:19:27;8;8;
47810;PMS5003;33575;52.600;7.318;2022-12-07T17:21:58;2;2;
47810;PMS5003;33575;52.600;7.318;2022-12-07T17:24:29;5;4;
47810;PMS5003;33575;52.600;7.318;2022-12-07T17:27:00;3;3;
47810;PMS5003;33575;52.600;7.318;2022-12-07T17:29:31;6;4;
47810;PMS5003;33575;52.600;7.318;2022-12-07T17:32:02;6;5;
47810;PMS5003;33575;52.600;7.318;2022-12-07T17:34:32;5;5;
47810;PMS5003;33575;52.600;7.318;2022-12-07T17:37:03;5;4;
47810;PMS5003;33575;52.600;7.318;2022-12-07T17:39:34;4;4;
47810;PMS5003;33575;52.600;7.318;2022-12-07T17:42:05;5;4;
47810;PMS5003;33575;52.600;7.318;2022-12-07T17:44:35;4;4;
47810;PMS5003;33575;52.600;7.318;2022-12-07T17:47:07;4;4;
47810;PMS5003;33575;52.600;7.318;2022-12-07T17:49:37;3;3;
47810;PMS5003;33575;52.600;7.318;2022-12-07T17:52:08;10;8;